Monday, December 18, 2017, 2:26 PM GMT
Back to Local

CYTR, Trenton, Ont.

Location: , , Canada Lat: 44.117
Local Time: 2:26 PM GMT (14:26 GMT) Lon: -77.533
Time Zone: GMT Elev: 278 ft

Show me the last for .
Show Decoded

2017-12-18 14:00 METAR CYTR 181400Z 05004KT 1 3/4SM -SN OVC007 M08/M10 A2998 RMK SN5NS3 VIS VRB 1
                 1/4-2 1/4 SLP160 =
2017-12-18 13:21 METAR CYTR 181321Z 05004KT 3SM -SN OVC007 M09/M11 A2999 RMK NS8 VIS VRB 2 1/4-4
                 SLP162 =
2017-12-18 13:07 METAR CYTR 181307Z 04005KT 6SM -SN OVC007 M09/M11 A2999 RMK NS8 SLP164 =
2017-12-18 13:00 METAR CYTR 181300Z 04006KT 3SM -SN OVC007 M09/M11 A3000 RMK NS8 SLP165 =
2017-12-18 12:41 METAR CYTR 181241Z 05006KT 3SM -SN OVC007 M09/M12 A3000 RMK NS8 SLP167 =
2017-12-18 12:33 METAR CYTR 181233Z 05004KT 5SM -SN OVC007 M09/M12 A3001 RMK NS8 SLP168 =
2017-12-18 12:20 METAR CYTR 181220Z 04005KT 10SM -SN OVC007 M09/M12 A3001 RMK NS8 PCPN VRY LGT
                 SLP170 =
2017-12-18 12:00 METAR CYTR 181200Z 04004KT 15SM OVC007 M09/M13 A3002 RMK NS8 SLP174 =
2017-12-18 11:00 METAR CYTR 181100Z 05005KT 15SM OVC007 M10/M13 A3002 RMK NS8 SLP172 =
2017-12-18 10:00 METAR CYTR 181000Z 03006KT 15SM OVC007 M10/M14 A3004 RMK ST8 SLP178 =
2017-12-18 09:00 METAR CYTR 180900Z 03006KT 15SM OVC008 M10/M14 A3006 RMK ST8 SLP186 =
2017-12-18 08:00 METAR CYTR 180800Z 03006KT 15SM OVC008 M11/M14 A3008 RMK ST8 SLP193 =
2017-12-18 07:00 METAR CYTR 180700Z 04007KT 15SM OVC015 M11/M14 A3009 RMK SC8 SLP198 =
2017-12-18 06:00 METAR CYTR 180600Z 05007KT 15SM -SHSN SCT012 OVC044 M11/M15 A3011 RMK SC4SC4
                 SLP203 =
2017-12-18 05:00 METAR CYTR 180500Z 04008KT 15SM -SHSN SCT022 OVC046 M12/M15 A3014 RMK SC3SC5
                 SLP213 =
2017-12-18 04:46 METAR CYTR 180446Z 04006KT 15SM -SHSN SCT022 OVC046 M12/M15 A3015 RMK SC3SC5
                 SLP216 =
2017-12-18 04:00 METAR CYTR 180400Z 05007KT 15SM SCT019 OVC140 M12/M16 A3016 RMK SC4AC4 SLP221 =
2017-12-18 03:00 METAR CYTR 180300Z 06007KT 15SM OVC015 M12/M16 A3018 RMK SC8 SLP226 =
2017-12-18 02:20 METAR CYTR 180220Z 05006KT 15SM BKN015 OVC220 M12/M16 A3019 RMK SC6CI2 SLP233 =
2017-12-18 02:00 METAR CYTR 180200Z 07005KT 15SM SCT017 BKN140 OVC220 M11/M17 A3021 RMK SC4AC2CI2
                 SLP238 =
2017-12-18 01:00 METAR CYTR 180100Z 06005KT 15SM BKN140 OVC220 M11/M16 A3024 RMK AC6CI2 SLP249 =
2017-12-18 00:00 METAR CYTR 180000Z 06004KT 15SM BKN140 OVC220 M11/M16 A3025 RMK AC6CI2 SLP252 =
2017-12-17 23:00 METAR CYTR 172300Z 06003KT 15SM BKN140 OVC220 M11/M16 A3025 RMK AC6CI2 SLP254 =
2017-12-17 22:00 METAR CYTR 172200Z 06004KT 15SM BKN140 OVC220 M12/M17 A3027 RMK AC6CI2 SLP258 =
2017-12-17 21:00 METAR CYTR 172100Z 05005KT 15SM BKN140 OVC220 M11/M18 A3027 RMK AC6CI2 SLP259 =
2017-12-17 20:00 METAR CYTR 172000Z 05003KT 15SM BKN140 OVC220 M11/M18 A3030 RMK AC5CI3 SLP268 =
2017-12-17 19:00 METAR CYTR 171900Z 07002KT 15SM FEW140 OVC220 M11/M19 A3030 RMK AC2CS6 HALO
                 SLP270 =
2017-12-17 18:00 METAR CYTR 171800Z 05003KT 15SM FEW140 OVC220 M12/M19 A3030 RMK AC1CS7 HALO
                 SLP268 =
2017-12-17 17:00 METAR CYTR 171700Z 04005KT 15SM BKN220 M13/M19 A3033 RMK CS7 HALO SLP280 =
2017-12-17 16:00 METAR CYTR 171600Z 05004KT 15SM BKN220 M13/M20 A3037 RMK CI7 CC ASOCTD SLP293 =
2017-12-17 15:00 METAR CYTR 171500Z 01003KT 15SM BKN220 M15/M20 A3037 RMK CI6 SLP294 =

Support USWX by starting your Amazon purchase here.